Time;durP1;ratioP1;P1;durP2;ratioP2;P2;SDS_P1;SDS_P2;PMS_P1;PMS_P2;Temp;Humidity;BMP_temperature;BMP_pressure;BME280_temperature;BME280_humidity;BME280_pressure;Samples;Min_cycle;Max_cycle;Signal;HPM_P1;HPM_P2
2022/05/11 00:01:35;;;;;;;7.18;1.70;;;17.60;54.00;;;;;;5030125;28;20033;-84
2022/05/11 00:04:02;;;;;;;6.78;1.98;;;17.50;53.90;;;;;;5018879;28;20031;-86
2022/05/11 00:06:29;;;;;;;5.50;2.17;;;17.60;54.30;;;;;;5027735;28;20516;-85
2022/05/11 00:08:56;;;;;;;7.32;2.05;;;17.60;54.70;;;;;;5015134;28;20077;-86
2022/05/11 00:11:23;;;;;;;5.85;2.03;;;17.50;55.40;;;;;;5026669;28;20068;-85
2022/05/11 00:13:50;;;;;;;7.18;2.03;;;17.50;56.10;;;;;;5013399;28;20653;-85
2022/05/11 00:16:15;;;;;;;4.95;2.03;;;17.50;56.40;;;;;;5023178;28;20176;-86
2022/05/11 00:18:42;;;;;;;5.88;2.10;;;17.40;57.50;;;;;;5018329;28;20469;-85
2022/05/11 00:21:09;;;;;;;6.55;2.08;;;17.50;58.30;;;;;;5015563;28;20038;-84
2022/05/11 00:23:34;;;;;;;4.05;2.20;;;17.40;58.70;;;;;;5018233;28;20106;-84
2022/05/11 00:26:00;;;;;;;6.72;2.10;;;17.40;59.20;;;;;;5017580;28;20030;-84
2022/05/11 00:28:26;;;;;;;7.20;1.90;;;17.30;59.80;;;;;;5024134;28;20037;-86
2022/05/11 00:30:52;;;;;;;5.00;2.30;;;17.30;60.20;;;;;;5014821;28;20121;-84
2022/05/11 00:33:19;;;;;;;6.38;1.90;;;17.30;60.70;;;;;;5015967;28;20977;-85
2022/05/11 00:35:47;;;;;;;5.03;2.30;;;17.30;60.70;;;;;;5017768;28;20040;-85
2022/05/11 00:38:14;;;;;;;7.22;2.47;;;17.30;61.00;;;;;;5009902;28;20045;-83
2022/05/11 00:40:50;;;;;;;6.20;2.45;;;17.30;61.30;;;;;;5023765;28;20428;-84
2022/05/11 00:43:36;;;;;;;7.75;2.20;;;17.20;61.70;;;;;;5012692;28;20128;-84
2022/05/11 00:46:19;;;;;;;7.13;2.45;;;17.10;61.90;;;;;;5022184;28;20356;-84
2022/05/11 00:51:40;;;;;;;5.40;2.03;;;17.10;62.00;;;;;;5019931;28;20041;-85
2022/05/11 00:54:06;;;;;;;7.53;2.50;;;17.10;62.30;;;;;;5018652;28;20045;-85
2022/05/11 00:56:35;;;;;;;7.38;2.65;;;17.20;62.20;;;;;;5014121;28;20053;-85
2022/05/11 00:59:12;;;;;;;5.00;2.10;;;17.10;62.20;;;;;;5016048;28;20030;-84
2022/05/11 01:01:39;;;;;;;5.90;2.28;;;17.10;62.30;;;;;;5017487;28;20098;-85
2022/05/11 01:04:11;;;;;;;6.13;2.25;;;17.10;62.50;;;;;;5014557;28;20033;-83
2022/05/11 01:06:37;;;;;;;6.05;2.30;;;17.10;62.60;;;;;;5029944;28;20018;-85
2022/05/11 01:09:05;;;;;;;8.32;2.50;;;17.10;62.50;;;;;;5032233;28;20049;-85
2022/05/11 01:11:36;;;;;;;6.70;2.65;;;17.10;62.60;;;;;;5012584;28;20042;-84
2022/05/11 01:14:03;;;;;;;7.85;2.45;;;17.10;62.70;;;;;;5010994;28;20181;-82
2022/05/11 01:16:29;;;;;;;6.30;2.30;;;17.00;62.80;;;;;;5024861;28;20030;-84
2022/05/11 01:18:57;;;;;;;6.07;2.40;;;17.00;62.80;;;;;;5013926;28;20048;-84
2022/05/11 01:21:36;;;;;;;7.97;2.70;;;17.00;62.80;;;;;;5018730;28;20415;-84
2022/05/11 01:24:22;;;;;;;7.75;2.35;;;16.90;62.80;;;;;;5012660;28;20192;-85
2022/05/11 01:26:47;;;;;;;5.25;2.10;;;16.90;62.60;;;;;;5010573;28;20345;-84
2022/05/11 01:29:13;;;;;;;7.95;2.53;;;16.90;62.00;;;;;;5015504;28;20068;-84
2022/05/11 01:31:39;;;;;;;5.70;2.00;;;16.80;61.60;;;;;;5013986;28;20044;-85
2022/05/11 01:34:05;;;;;;;5.43;2.15;;;16.80;61.30;;;;;;5016412;28;20134;-85
2022/05/11 01:36:34;;;;;;;5.82;2.28;;;16.80;61.10;;;;;;5012051;28;20052;-85
2022/05/11 01:39:04;;;;;;;7.35;2.10;;;16.80;61.00;;;;;;5016821;28;20129;-85
2022/05/11 01:41:50;;;;;;;6.43;2.53;;;16.80;60.70;;;;;;5010456;28;20038;-84
2022/05/11 01:44:18;;;;;;;9.27;2.75;;;16.70;60.50;;;;;;5010962;28;20029;-84
2022/05/11 01:46:50;;;;;;;8.00;2.60;;;16.80;60.40;;;;;;5010421;28;20034;-84
2022/05/11 01:49:16;;;;;;;8.27;2.55;;;16.70;60.60;;;;;;5013232;28;20033;-84
2022/05/11 01:51:42;;;;;;;6.43;2.13;;;16.70;60.60;;;;;;5016053;28;20089;-85
2022/05/11 01:54:08;;;;;;;9.13;2.30;;;16.80;60.40;;;;;;5011757;28;20120;-85
2022/05/11 01:56:34;;;;;;;9.65;2.42;;;16.80;60.40;;;;;;5015904;28;20052;-85
2022/05/11 01:59:00;;;;;;;6.70;2.25;;;16.60;60.40;;;;;;5019097;28;20037;-84
2022/05/11 02:01:29;;;;;;;6.72;2.40;;;16.60;60.50;;;;;;5021890;28;20042;-83
2022/05/11 02:03:55;;;;;;;7.85;2.17;;;16.60;60.50;;;;;;5009847;28;20057;-84
2022/05/11 02:09:06;;;;;;;;;;;16.40;61.10;;;;;;5016146;28;20495;-85
2022/05/11 02:11:32;;;;;;;5.82;2.17;;;16.40;60.70;;;;;;5018750;28;19913;-84
2022/05/11 02:13:58;;;;;;;7.53;2.38;;;16.40;60.20;;;;;;5009213;28;20385;-85
2022/05/11 02:16:25;;;;;;;9.52;2.38;;;16.40;59.60;;;;;;5021550;28;20079;-83
2022/05/11 02:18:51;;;;;;;7.80;2.35;;;16.40;59.00;;;;;;5015974;28;20266;-83
2022/05/11 02:21:17;;;;;;;8.57;2.25;;;16.40;58.90;;;;;;5012203;28;20504;-84
2022/05/11 02:23:43;;;;;;;10.70;2.58;;;16.40;58.90;;;;;;5012615;28;20318;-84
2022/05/11 02:26:11;;;;;;;6.95;1.95;;;16.40;58.10;;;;;;5009558;28;20038;-83
2022/05/11 02:28:37;;;;;;;7.10;2.25;;;16.40;58.10;;;;;;5032820;28;20085;-85
2022/05/11 02:31:03;;;;;;;9.65;1.92;;;16.30;57.10;;;;;;5029331;28;20042;-84
2022/05/11 02:33:29;;;;;;;6.90;1.92;;;16.30;57.10;;;;;;5011282;28;20044;-84
2022/05/11 02:35:55;;;;;;;7.35;2.08;;;16.30;56.80;;;;;;5014081;28;20032;-83
2022/05/11 02:38:29;;;;;;;8.38;2.25;;;16.30;55.80;;;;;;5012980;28;20166;-84
2022/05/11 02:40:55;;;;;;;;;;;16.10;55.50;;;;;;5014437;28;20034;-84
2022/05/11 02:43:22;;;;;;;7.60;1.65;;;16.10;55.50;;;;;;5005100;28;19998;-84
2022/05/11 02:45:49;;;;;;;11.07;2.35;;;16.00;55.70;;;;;;5012468;28;20296;-85
2022/05/11 02:48:19;;;;;;;7.22;1.92;;;15.90;56.00;;;;;;5012310;28;20052;-84
2022/05/11 02:50:47;;;;;;;12.60;2.17;;;15.80;56.10;;;;;;5012584;28;20033;-84
2022/05/11 02:53:14;;;;;;;7.60;1.90;;;15.80;56.40;;;;;;5011867;28;20070;-85
2022/05/11 02:55:45;;;;;;;7.82;1.90;;;15.70;56.80;;;;;;5013455;28;20069;-86
2022/05/11 02:58:13;;;;;;;5.38;1.90;;;15.60;57.10;;;;;;5013791;28;20038;-85
2022/05/11 03:00:41;;;;;;;6.70;1.98;;;15.60;57.40;;;;;;5014789;28;20029;-85
2022/05/11 03:03:07;;;;;;;7.50;1.95;;;15.60;57.70;;;;;;5010339;28;20136;-84
2022/05/11 03:05:34;;;;;;;7.05;1.95;;;15.50;57.90;;;;;;5018994;28;20401;-85
2022/05/11 03:08:00;;;;;;;9.00;2.13;;;15.50;58.00;;;;;;5000163;28;20038;-85
2022/05/11 03:10:26;;;;;;;7.97;2.03;;;15.50;58.10;;;;;;5014795;28;20032;-86
2022/05/11 03:12:52;;;;;;;8.93;2.00;;;15.40;58.40;;;;;;5011395;28;20380;-86
2022/05/11 03:15:18;;;;;;;6.60;1.95;;;15.40;58.50;;;;;;5008709;28;20036;-85
2022/05/11 03:17:44;;;;;;;6.85;1.90;;;15.30;58.60;;;;;;5015589;28;20049;-87
2022/05/11 03:20:10;;;;;;;7.85;2.20;;;15.30;58.90;;;;;;5012507;28;20029;-84
2022/05/11 03:22:36;;;;;;;7.63;2.35;;;15.30;58.90;;;;;;5017455;28;20147;-85
2022/05/11 03:25:02;;;;;;;7.75;2.10;;;15.20;59.20;;;;;;5011295;28;20334;-86
2022/05/11 03:27:28;;;;;;;7.85;2.15;;;15.10;59.30;;;;;;5015464;28;20042;-86
2022/05/11 03:29:54;;;;;;;9.23;2.10;;;15.10;59.50;;;;;;5008901;28;20050;-84
2022/05/11 03:35:05;;;;;;;;;;;14.90;59.80;;;;;;5021782;28;20052;-85
2022/05/11 03:37:31;;;;;;;6.47;1.55;;;15.00;59.90;;;;;;5011086;28;19913;-86
2022/05/11 03:39:56;;;;;;;7.75;1.95;;;14.80;60.20;;;;;;5009020;28;20049;-85
2022/05/11 03:42:28;;;;;;;7.85;1.90;;;14.80;60.20;;;;;;5019016;28;20045;-85
2022/05/11 03:44:55;;;;;;;6.90;1.75;;;14.80;60.50;;;;;;5013595;28;20057;-84
2022/05/11 03:47:20;;;;;;;9.30;2.83;;;14.80;60.40;;;;;;5009205;28;20496;-85
2022/05/11 03:49:46;;;;;;;8.52;2.08;;;14.80;60.50;;;;;;5027858;28;20033;-85
2022/05/11 03:52:14;;;;;;;6.05;1.85;;;14.80;60.50;;;;;;5021783;28;20390;-85
2022/05/11 03:54:39;;;;;;;5.93;1.88;;;14.80;60.60;;;;;;5023228;28;20025;-84
2022/05/11 03:57:05;;;;;;;8.13;2.15;;;14.70;60.50;;;;;;5003056;28;20428;-85
2022/05/11 03:59:31;;;;;;;10.07;2.20;;;14.80;60.70;;;;;;5015240;28;20021;-85
2022/05/11 04:01:56;;;;;;;7.72;2.35;;;14.80;60.50;;;;;;5013895;28;20041;-84
2022/05/11 04:04:22;;;;;;;7.57;2.33;;;14.80;60.50;;;;;;5010217;28;20392;-85
2022/05/11 04:06:47;;;;;;;8.00;2.20;;;14.70;60.50;;;;;;5019223;28;20033;-87
2022/05/11 04:09:13;;;;;;;9.60;2.40;;;14.70;60.50;;;;;;5010471;28;20030;-84
2022/05/11 04:11:39;;;;;;;9.10;2.10;;;14.80;60.30;;;;;;5010983;28;20117;-83
2022/05/11 04:14:04;;;;;;;10.07;2.45;;;14.80;60.20;;;;;;5011767;28;20597;-83
2022/05/11 04:16:30;;;;;;;10.65;2.00;;;14.80;60.20;;;;;;5012621;28;20034;-85
2022/05/11 04:18:55;;;;;;;9.35;2.50;;;14.80;60.20;;;;;;5017992;28;20037;-85
2022/05/11 04:21:21;;;;;;;10.32;2.38;;;14.80;60.00;;;;;;5022335;28;20859;-87
2022/05/11 04:23:47;;;;;;;6.25;1.90;;;14.80;60.20;;;;;;5019087;28;20212;-84
2022/05/11 04:26:13;;;;;;;9.32;2.13;;;14.80;60.10;;;;;;5011927;28;20040;-84
2022/05/11 04:28:43;;;;;;;9.60;2.30;;;14.80;60.00;;;;;;5013067;28;20038;-84
2022/05/11 04:31:10;;;;;;;7.93;2.30;;;14.80;59.90;;;;;;5013007;28;20036;-85
2022/05/11 04:33:37;;;;;;;9.05;2.40;;;14.90;60.20;;;;;;5023189;28;20043;-85
2022/05/11 04:36:04;;;;;;;8.95;2.20;;;14.90;59.70;;;;;;5009008;28;20092;-86
2022/05/11 04:38:30;;;;;;;8.73;2.30;;;14.90;59.70;;;;;;5010809;28;20163;-83
2022/05/11 04:40:55;;;;;;;8.50;2.45;;;15.00;59.70;;;;;;5012183;28;20601;-83
2022/05/11 04:43:21;;;;;;;10.65;2.30;;;15.00;59.70;;;;;;5018069;28;20041;-86
2022/05/11 04:45:47;;;;;;;7.70;1.67;;;15.00;59.60;;;;;;5028870;28;20114;-86
2022/05/11 04:48:15;;;;;;;7.57;1.95;;;15.10;59.60;;;;;;5038845;28;20057;-87
2022/05/11 04:50:42;;;;;;;7.57;2.20;;;15.00;59.70;;;;;;5016286;28;20453;-84
2022/05/11 04:53:09;;;;;;;13.05;2.70;;;15.00;59.80;;;;;;5011208;28;20041;-85
2022/05/11 04:55:36;;;;;;;8.02;2.92;;;15.00;59.20;;;;;;5010747;28;20034;-85
2022/05/11 04:58:04;;;;;;;10.63;2.60;;;15.10;59.20;;;;;;5017010;28;20044;-86
2022/05/11 05:00:30;;;;;;;9.68;2.45;;;15.10;59.00;;;;;;5011464;28;20038;-84
2022/05/11 05:02:56;;;;;;;8.38;2.17;;;15.10;59.00;;;;;;5019647;28;20127;-86
2022/05/11 05:05:22;;;;;;;12.60;2.78;;;15.00;59.20;;;;;;5028822;28;20080;-86
2022/05/11 05:07:48;;;;;;;7.35;1.95;;;15.00;58.60;;;;;;5018155;28;20450;-89
2022/05/11 05:10:15;;;;;;;10.27;2.15;;;15.10;59.00;;;;;;5012529;28;20042;-87
2022/05/11 05:12:42;;;;;;;13.30;2.80;;;15.10;58.60;;;;;;5012621;28;20099;-85
2022/05/11 05:15:10;;;;;;;11.60;3.08;;;15.10;58.90;;;;;;5008163;28;20422;-84
2022/05/11 05:17:35;;;;;;;10.70;2.50;;;14.90;58.90;;;;;;5018098;28;20052;-85
2022/05/11 05:20:03;;;;;;;12.55;2.05;;;15.00;59.20;;;;;;5017767;28;20063;-85
2022/05/11 05:22:28;;;;;;;9.70;2.10;;;15.00;58.80;;;;;;5013743;28;20125;-85
2022/05/11 05:24:54;;;;;;;10.20;2.13;;;15.00;59.00;;;;;;5033450;28;20337;-85
2022/05/11 05:27:20;;;;;;;6.93;2.10;;;15.00;58.80;;;;;;5032187;28;20033;-85
2022/05/11 05:32:40;;;;;;;9.07;1.98;;;15.10;58.80;;;;;;5034877;28;20052;-88
2022/05/11 05:35:08;;;;;;;10.75;2.30;;;15.20;58.50;;;;;;5035770;28;20080;-89
2022/05/11 05:37:35;;;;;;;11.23;2.45;;;15.30;58.80;;;;;;5037171;28;20118;-84
2022/05/11 05:40:01;;;;;;;12.57;2.50;;;15.30;58.70;;;;;;5016449;28;20045;-85
2022/05/11 05:42:28;;;;;;;10.65;2.20;;;15.40;58.70;;;;;;5016283;28;20129;-86
2022/05/11 05:44:54;;;;;;;10.63;2.50;;;15.40;58.90;;;;;;5011697;28;20129;-85
2022/05/11 05:47:20;;;;;;;12.95;2.75;;;15.60;58.70;;;;;;5014603;28;20034;-84
2022/05/11 05:49:46;;;;;;;12.63;2.80;;;15.60;58.50;;;;;;5011418;28;20089;-82
2022/05/11 05:52:17;;;;;;;11.90;2.78;;;15.60;58.30;;;;;;5011290;28;20164;-83
2022/05/11 05:54:45;;;;;;;12.98;2.78;;;15.60;58.60;;;;;;5009191;28;20165;-83
2022/05/11 05:57:12;;;;;;;9.95;2.20;;;15.70;58.80;;;;;;5014932;28;20034;-82
2022/05/11 05:59:37;;;;;;;11.35;2.42;;;15.60;58.90;;;;;;5008857;28;20086;-83
2022/05/11 06:02:04;;;;;;;10.85;2.40;;;15.80;58.80;;;;;;5010022;28;20122;-82
2022/05/11 06:04:29;;;;;;;11.93;3.13;;;15.90;58.40;;;;;;5009903;28;20026;-82
2022/05/11 06:06:55;;;;;;;10.93;2.90;;;15.90;58.10;;;;;;5007654;28;20287;-84
2022/05/11 06:09:21;;;;;;;10.07;2.35;;;15.90;58.50;;;;;;5013371;28;25916;-85
2022/05/11 06:11:46;;;;;;;10.93;2.55;;;16.00;58.50;;;;;;5010357;28;20045;-84
2022/05/11 06:14:12;;;;;;;11.48;3.03;;;15.90;58.70;;;;;;5004384;28;20174;-82
2022/05/11 06:16:38;;;;;;;11.60;2.78;;;16.00;58.50;;;;;;5021444;28;20052;-83
2022/05/11 06:19:05;;;;;;;14.98;2.83;;;16.00;59.00;;;;;;5025214;28;20039;-82
2022/05/11 06:21:31;;;;;;;13.88;2.75;;;16.10;59.60;;;;;;5018273;28;20049;-83
2022/05/11 06:23:56;;;;;;;12.60;2.60;;;16.10;59.00;;;;;;5011107;28;20117;-82
2022/05/11 06:26:22;;;;;;;12.73;2.65;;;16.20;58.60;;;;;;5019242;28;20114;-83
2022/05/11 06:28:48;;;;;;;10.05;2.63;;;16.10;59.30;;;;;;5017334;28;20033;-82
2022/05/11 06:31:14;;;;;;;13.55;2.85;;;16.20;59.10;;;;;;5006884;28;20505;-84
2022/05/11 06:33:40;;;;;;;11.98;2.88;;;16.40;58.80;;;;;;5018006;28;20405;-83
2022/05/11 06:36:08;;;;;;;11.15;2.50;;;16.60;58.40;;;;;;5016091;28;20025;-83
2022/05/11 06:38:34;;;;;;;11.48;2.88;;;16.80;57.70;;;;;;5014947;28;20048;-85
2022/05/11 06:41:12;;;;;;;11.77;2.83;;;16.80;57.80;;;;;;5010766;28;20045;-79
2022/05/11 06:43:38;;;;;;;14.05;2.72;;;16.80;57.60;;;;;;5008473;28;20192;-80
2022/05/11 06:46:04;;;;;;;8.27;2.42;;;16.60;58.00;;;;;;5012638;28;20044;-79
2022/05/11 06:48:31;;;;;;;11.32;2.40;;;16.60;58.30;;;;;;5007030;28;20037;-79
2022/05/11 06:50:57;;;;;;;11.18;2.72;;;16.80;58.40;;;;;;5013590;28;20037;-80
2022/05/11 06:53:25;;;;;;;13.68;2.80;;;17.00;58.20;;;;;;5009005;28;20048;-80
2022/05/11 07:01:20;;;;;;;11.43;2.50;;;17.50;56.00;;;;;;5015196;28;20119;-81
2022/05/11 07:03:46;;;;;;;12.07;2.50;;;17.60;54.90;;;;;;5008209;28;20038;-81
2022/05/11 07:06:12;;;;;;;11.73;2.42;;;17.70;55.20;;;;;;5010668;28;20128;-82
2022/05/11 07:08:40;;;;;;;12.10;2.75;;;17.70;55.30;;;;;;5006814;28;20111;-79
2022/05/11 07:13:53;;;;;;;11.93;2.50;;;17.40;56.30;;;;;;5003842;28;20049;-80
2022/05/11 07:16:18;;;;;;;9.27;2.20;;;17.40;56.40;;;;;;5011414;28;20050;-80
2022/05/11 07:18:44;;;;;;;9.18;2.08;;;17.60;56.10;;;;;;5002704;28;20072;-79
2022/05/11 07:21:10;;;;;;;12.60;2.50;;;17.90;54.50;;;;;;5009833;28;20038;-81
2022/05/11 07:23:36;;;;;;;12.13;2.95;;;18.20;53.90;;;;;;5003874;28;20069;-81
2022/05/11 07:26:02;;;;;;;7.57;2.65;;;18.40;53.30;;;;;;5011086;28;20136;-80
2022/05/11 07:28:27;;;;;;;11.63;2.33;;;18.60;52.90;;;;;;5005869;28;20397;-82
2022/05/11 07:30:53;;;;;;;9.25;2.35;;;18.60;53.40;;;;;;5010105;28;20034;-80
2022/05/11 07:33:19;;;;;;;10.63;2.13;;;18.60;52.90;;;;;;5012334;28;20045;-80
2022/05/11 07:35:45;;;;;;;11.23;2.33;;;18.60;53.60;;;;;;5011580;28;20045;-82
2022/05/11 07:38:14;;;;;;;13.25;2.75;;;18.70;53.60;;;;;;5008407;28;20037;-80
2022/05/11 07:40:41;;;;;;;11.30;2.53;;;18.90;52.60;;;;;;5010234;28;20041;-79
2022/05/11 07:43:08;;;;;;;11.00;2.60;;;18.70;53.30;;;;;;5008060;28;20180;-79
2022/05/11 07:45:34;;;;;;;11.45;2.65;;;18.70;53.40;;;;;;5015600;28;20400;-80
2022/05/11 07:47:59;;;;;;;12.45;3.22;;;18.80;53.00;;;;;;5006065;28;20042;-79
2022/05/11 07:50:25;;;;;;;8.18;2.22;;;18.80;52.50;;;;;;5008956;28;20370;-81
2022/05/11 07:52:52;;;;;;;9.68;2.70;;;18.80;52.80;;;;;;5017310;28;20057;-80
2022/05/11 07:55:18;;;;;;;11.15;2.88;;;19.00;51.70;;;;;;5013372;28;20057;-81
2022/05/11 08:00:28;;;;;;;11.85;2.58;;;19.00;53.50;;;;;;5013670;28;20095;-80
2022/05/11 08:02:54;;;;;;;10.32;2.20;;;19.20;52.70;;;;;;5013127;28;20271;-79
2022/05/11 08:05:21;;;;;;;11.00;2.30;;;19.30;52.70;;;;;;5009862;28;20041;-80
2022/05/11 08:07:54;;;;;;;11.18;3.03;;;19.60;51.50;;;;;;5017422;28;20034;-82
2022/05/11 08:10:23;;;;;;;13.47;2.40;;;19.70;51.00;;;;;;5012385;28;20037;-83
2022/05/11 08:12:49;;;;;;;12.30;2.50;;;20.10;50.50;;;;;;5019544;28;20060;-80
2022/05/11 08:15:17;;;;;;;9.48;2.58;;;20.20;50.50;;;;;;5002548;28;20044;-79
2022/05/11 08:17:46;;;;;;;12.80;2.60;;;20.30;49.80;;;;;;5022417;28;20045;-81
2022/05/11 08:20:17;;;;;;;11.90;2.40;;;19.80;51.60;;;;;;5012906;28;20056;-78
2022/05/11 08:22:44;;;;;;;11.88;2.97;;;19.80;52.20;;;;;;5010575;28;20573;-80
2022/05/11 08:25:12;;;;;;;9.10;2.45;;;20.30;51.20;;;;;;5014741;28;20038;-80
2022/05/11 08:27:39;;;;;;;13.05;2.70;;;20.50;49.90;;;;;;5011554;28;20326;-80
2022/05/11 08:35:34;;;;;;;10.65;2.45;;;20.40;50.50;;;;;;5007530;28;20488;-80
2022/05/11 08:38:00;;;;;;;11.18;2.63;;;20.60;50.90;;;;;;5015687;28;20045;-80
2022/05/11 08:40:34;;;;;;;12.15;2.83;;;20.70;50.60;;;;;;5021503;28;20867;-81
2022/05/11 08:43:02;;;;;;;9.00;2.67;;;20.60;51.70;;;;;;5017502;28;20058;-82
2022/05/11 08:45:44;;;;;;;11.88;2.58;;;20.40;51.30;;;;;;5005482;28;20045;-78
2022/05/11 08:48:18;;;;;;;12.15;3.05;;;20.60;50.70;;;;;;5019073;28;20036;-79
2022/05/11 08:50:46;;;;;;;10.77;2.40;;;20.70;50.10;;;;;;5018185;28;20125;-81
2022/05/11 08:53:24;;;;;;;9.48;2.33;;;20.80;51.10;;;;;;5011506;28;20041;-79
2022/05/11 08:55:51;;;;;;;16.20;2.85;;;20.90;50.20;;;;;;5013414;28;20045;-80
2022/05/11 08:58:23;;;;;;;8.35;2.30;;;20.90;49.90;;;;;;5017995;28;20118;-81
2022/05/11 09:00:52;;;;;;;7.90;2.65;;;20.90;49.90;;;;;;5010758;28;20428;-79
2022/05/11 09:03:33;;;;;;;8.32;2.72;;;20.80;50.30;;;;;;5010826;28;20346;-81
2022/05/11 09:06:01;;;;;;;9.02;2.92;;;20.80;50.30;;;;;;5016821;28;20029;-81
2022/05/11 09:08:37;;;;;;;11.48;2.88;;;20.80;50.10;;;;;;5014338;28;20137;-81
2022/05/11 09:11:10;;;;;;;9.45;2.70;;;21.00;49.40;;;;;;5033502;28;20116;-82
2022/05/11 09:13:39;;;;;;;13.05;2.70;;;21.00;50.10;;;;;;5025038;28;20037;-80
2022/05/11 09:16:06;;;;;;;10.85;2.60;;;21.20;50.10;;;;;;5020859;28;20049;-81
2022/05/11 09:18:31;;;;;;;10.27;2.90;;;21.40;49.50;;;;;;5022994;28;20033;-80
2022/05/11 09:21:00;;;;;;;10.98;2.83;;;21.30;49.30;;;;;;5014345;28;20041;-81
2022/05/11 09:23:33;;;;;;;9.75;2.92;;;21.10;49.70;;;;;;5010818;28;20397;-80
2022/05/11 09:26:05;;;;;;;13.38;3.00;;;20.80;50.40;;;;;;5017164;28;20072;-84
2022/05/11 09:28:34;;;;;;;8.38;2.63;;;21.00;50.50;;;;;;5015776;28;20049;-79
2022/05/11 09:31:00;;;;;;;11.20;2.80;;;20.80;51.20;;;;;;5022251;28;20044;-81
2022/05/11 09:33:30;;;;;;;10.23;2.97;;;20.90;50.60;;;;;;5018089;28;20041;-83
2022/05/11 09:35:56;;;;;;;8.77;2.88;;;21.10;50.80;;;;;;5024581;28;20037;-82
2022/05/11 09:38:21;;;;;;;10.73;2.55;;;21.50;49.80;;;;;;5020964;28;20039;-79
2022/05/11 09:40:57;;;;;;;12.80;2.53;;;22.00;48.00;;;;;;5014424;28;20042;-80
2022/05/11 09:43:43;;;;;;;8.85;2.85;;;22.00;46.70;;;;;;5015447;28;20073;-81
2022/05/11 09:46:31;;;;;;;15.77;3.42;;;22.10;46.40;;;;;;5022393;28;20108;-81
2022/05/11 09:49:13;;;;;;;10.50;2.67;;;22.10;46.50;;;;;;5025912;28;20421;-80
2022/05/11 09:51:38;;;;;;;8.40;2.15;;;21.90;47.90;;;;;;5007375;28;20117;-82
2022/05/11 09:54:38;;;;;;;10.50;2.20;;;22.20;46.20;;;;;;5017982;28;20068;-81
2022/05/11 09:57:20;;;;;;;12.55;2.53;;;22.60;45.10;;;;;;5012279;28;20132;-81
2022/05/11 09:59:51;;;;;;;13.77;3.17;;;22.30;46.30;;;;;;5014725;28;20029;-84
2022/05/11 10:02:42;;;;;;;9.23;2.35;;;22.80;45.50;;;;;;5013658;28;20038;-80
2022/05/11 10:05:11;;;;;;;9.38;2.40;;;23.10;44.60;;;;;;5009662;28;20071;-81
2022/05/11 10:07:46;;;;;;;9.82;2.60;;;23.30;44.50;;;;;;5015753;28;20048;-83
2022/05/11 10:10:22;;;;;;;9.48;2.63;;;23.40;44.30;;;;;;5009196;28;20041;-80
2022/05/11 10:12:49;;;;;;;9.18;2.50;;;23.50;44.20;;;;;;5010573;28;20072;-80
2022/05/11 10:24:15;;;;;;;10.45;2.60;;;23.70;42.10;;;;;;4991984;28;19952;-79
2022/05/11 10:26:51;;;;;;;8.77;2.30;;;23.90;42.30;;;;;;5007286;28;20481;-80
2022/05/11 10:29:29;;;;;;;7.78;2.40;;;24.00;42.20;;;;;;5015585;28;20041;-81
2022/05/11 10:32:10;;;;;;;10.00;2.75;;;23.30;42.40;;;;;;5011822;28;20122;-81
2022/05/11 10:35:14;;;;;;;8.75;2.08;;;23.30;42.20;;;;;;5011420;28;20041;-84
2022/05/11 10:38:01;;;;;;;8.82;2.45;;;23.10;43.60;;;;;;5004381;28;20410;-84
2022/05/11 10:40:38;;;;;;;9.43;2.20;;;23.30;42.80;;;;;;5005960;28;20092;-80
2022/05/11 10:44:08;;;;;;;8.63;2.15;;;23.60;41.80;;;;;;4999177;28;20046;-83
2022/05/11 10:46:38;;;;;;;7.65;2.35;;;24.10;41.30;;;;;;4935118;28;20102;-83
2022/05/11 10:49:29;;;;;;;9.68;2.28;;;23.50;42.20;;;;;;4932706;28;20089;-84
2022/05/11 10:52:18;;;;;;;8.40;2.30;;;22.60;43.60;;;;;;4991857;28;20049;-81
2022/05/11 10:54:48;;;;;;;10.15;2.47;;;23.00;43.50;;;;;;4964070;28;20034;-80
2022/05/11 10:57:39;;;;;;;8.95;2.25;;;23.80;41.90;;;;;;4995548;28;20074;-83
2022/05/11 11:00:12;;;;;;;10.65;2.65;;;24.10;40.40;;;;;;4993610;28;20046;-85
2022/05/11 11:03:15;;;;;;;9.65;2.83;;;24.10;40.30;;;;;;4996880;28;20061;-84
2022/05/11 11:07:11;;;;;;;9.00;2.50;;;24.50;40.80;;;;;;5003431;28;20041;-81
2022/05/11 11:09:01;;;;;;;7.45;2.20;;;24.40;40.00;;;;;;5001900;28;20096;-80
2022/05/11 11:11:36;;;;;;;12.25;2.50;;;24.00;41.30;;;;;;4998026;28;20042;-81
2022/05/11 11:14:03;;;;;;;7.50;2.30;;;24.40;39.30;;;;;;4996397;28;20056;-83
2022/05/11 11:16:35;;;;;;;8.43;2.42;;;24.50;39.10;;;;;;4999324;28;20530;-83
2022/05/11 11:19:04;;;;;;;12.23;2.75;;;24.10;40.90;;;;;;5001078;28;20043;-82
2022/05/11 11:21:31;;;;;;;8.43;2.70;;;23.60;40.20;;;;;;4997176;28;21110;-81
2022/05/11 11:24:17;;;;;;;9.25;2.25;;;23.80;39.40;;;;;;4999972;28;20030;-80
2022/05/11 11:27:01;;;;;;;7.05;2.00;;;23.90;40.20;;;;;;5014968;28;20061;-82
2022/05/11 11:29:36;;;;;;;8.43;2.00;;;24.00;39.90;;;;;;5010938;28;20061;-84
2022/05/11 11:32:07;;;;;;;11.23;2.78;;;23.80;40.10;;;;;;5000751;28;20285;-83
2022/05/11 11:35:14;;;;;;;8.07;2.42;;;24.30;39.50;;;;;;5002081;28;20071;-79
2022/05/11 11:37:43;;;;;;;10.38;2.42;;;24.50;38.70;;;;;;5021733;28;20068;-79
2022/05/11 11:40:21;;;;;;;12.40;2.88;;;24.70;39.00;;;;;;5001835;28;20042;-81
2022/05/11 11:42:49;;;;;;;9.38;2.28;;;24.90;38.40;;;;;;5016028;28;20045;-80
2022/05/11 11:45:29;;;;;;;10.02;2.55;;;24.90;39.00;;;;;;5019992;28;20388;-81
2022/05/11 11:48:25;;;;;;;10.23;2.58;;;24.90;39.50;;;;;;5026014;28;20064;-81
2022/05/11 11:50:55;;;;;;;8.57;2.20;;;24.60;39.70;;;;;;5000665;28;20069;-82
2022/05/11 11:53:33;;;;;;;9.10;2.25;;;24.30;40.30;;;;;;5002495;28;20116;-81
2022/05/11 11:56:23;;;;;;;9.52;2.65;;;24.60;40.70;;;;;;4999422;28;20566;-84
2022/05/11 11:59:03;;;;;;;12.40;2.80;;;25.10;36.90;;;;;;5005300;28;20034;-83
2022/05/11 12:01:33;;;;;;;9.48;2.38;;;24.70;37.60;;;;;;5002839;28;20690;-83
2022/05/11 12:04:09;;;;;;;8.70;2.00;;;24.90;38.40;;;;;;5005893;28;20121;-81
2022/05/11 12:15:11;;;;;;;9.55;2.65;;;25.30;37.10;;;;;;5007264;28;20041;-84
2022/05/11 12:17:39;;;;;;;9.65;2.45;;;25.10;38.00;;;;;;4994213;28;20072;-81
2022/05/11 12:20:10;;;;;;;7.70;2.42;;;25.10;38.50;;;;;;5005806;28;20034;-83
2022/05/11 12:22:42;;;;;;;10.77;2.60;;;24.80;38.80;;;;;;5000639;28;20050;-82
2022/05/11 12:25:19;;;;;;;7.43;2.25;;;25.10;37.00;;;;;;4999339;28;20049;-80
2022/05/11 12:27:47;;;;;;;10.07;2.20;;;24.60;36.50;;;;;;4999980;28;20061;-80
2022/05/11 12:30:29;;;;;;;7.97;2.10;;;24.30;36.90;;;;;;5000145;28;20131;-81
2022/05/11 12:32:58;;;;;;;10.27;2.40;;;24.60;37.90;;;;;;5001735;28;20553;-83
2022/05/11 12:35:31;;;;;;;9.65;2.17;;;24.70;38.20;;;;;;5001492;28;20085;-82
2022/05/11 12:38:05;;;;;;;7.72;1.95;;;24.50;37.50;;;;;;5001227;28;20711;-87
2022/05/11 12:40:48;;;;;;;9.07;2.88;;;24.60;37.80;;;;;;5003048;28;20592;-80
2022/05/11 12:43:33;;;;;;;7.70;2.20;;;25.00;37.80;;;;;;5000614;28;20928;-81
2022/05/11 12:46:18;;;;;;;7.97;2.17;;;25.50;36.80;;;;;;5003003;28;20040;-83
2022/05/11 12:48:57;;;;;;;10.38;2.35;;;25.60;36.20;;;;;;5000856;28;20046;-85
2022/05/11 12:51:40;;;;;;;11.52;2.13;;;25.60;34.50;;;;;;5017397;28;20492;-83
2022/05/11 12:54:17;;;;;;;7.82;2.08;;;25.60;34.60;;;;;;5002522;28;20092;-81
2022/05/11 12:56:43;;;;;;;8.45;2.03;;;25.70;35.10;;;;;;5003233;28;20116;-80
2022/05/11 12:59:23;;;;;;;7.30;2.00;;;26.00;34.30;;;;;;4999962;28;20065;-83
2022/05/11 13:01:50;;;;;;;5.88;1.88;;;26.20;34.30;;;;;;5004592;28;20945;-85
2022/05/11 13:04:23;;;;;;;8.63;2.10;;;25.60;35.30;;;;;;5001190;28;20060;-81
2022/05/11 13:06:52;;;;;;;8.15;2.00;;;25.50;35.30;;;;;;5000453;28;20132;-84
2022/05/11 13:09:43;;;;;;;9.50;2.10;;;25.40;35.30;;;;;;4999062;28;20108;-83
2022/05/11 13:12:13;;;;;;;7.10;1.85;;;25.00;36.40;;;;;;4999916;28;20037;-81
2022/05/11 13:14:52;;;;;;;6.57;1.80;;;25.20;36.00;;;;;;4996952;28;20601;-83
2022/05/11 13:17:26;;;;;;;7.13;2.10;;;25.50;36.40;;;;;;5001826;28;20229;-82
2022/05/11 13:19:59;;;;;;;;;;;25.70;35.30;;;;;;5008155;28;20029;-80
2022/05/11 13:22:29;;;;;;;9.75;2.10;;;26.00;34.90;;;;;;5004342;28;20016;-82
2022/05/11 13:25:00;;;;;;;8.07;2.22;;;25.90;35.30;;;;;;5006509;28;20516;-80
2022/05/11 13:27:48;;;;;;;11.50;2.63;;;26.00;35.60;;;;;;5017926;28;20038;-86
2022/05/11 13:30:28;;;;;;;8.90;1.90;;;26.20;35.60;;;;;;5019153;28;20564;-81
2022/05/11 13:32:57;;;;;;;4.75;1.67;;;26.40;34.40;;;;;;5007218;28;20053;-82
2022/05/11 13:35:32;;;;;;;8.20;2.47;;;26.30;34.00;;;;;;5008864;28;20029;-83
2022/05/11 13:37:58;;;;;;;9.23;1.85;;;26.50;34.50;;;;;;5006484;28;20500;-84
2022/05/11 13:40:35;;;;;;;11.70;2.20;;;26.80;35.60;;;;;;5002219;28;20132;-87
2022/05/11 13:43:11;;;;;;;7.55;2.20;;;26.60;34.70;;;;;;5008009;28;20152;-83
2022/05/11 13:45:37;;;;;;;8.98;2.22;;;26.60;34.80;;;;;;5008773;28;20139;-84